sensor_id;sensor_type;location;lat;lon;timestamp;temperature;humidity
23347;DHT22;36852;45.466;11.066;2023-03-20T00:02:20;13.00;99.90
23347;DHT22;36852;45.466;11.066;2023-03-20T00:04:48;13.00;99.90
23347;DHT22;36852;45.466;11.066;2023-03-20T00:07:16;13.00;99.90
23347;DHT22;36852;45.466;11.066;2023-03-20T00:09:44;12.90;99.90
23347;DHT22;36852;45.466;11.066;2023-03-20T00:12:17;12.90;99.90
23347;DHT22;36852;45.466;11.066;2023-03-20T00:14:47;12.90;99.90
23347;DHT22;36852;45.466;11.066;2023-03-20T00:17:18;12.90;99.90
23347;DHT22;36852;45.466;11.066;2023-03-20T00:19:47;12.80;99.90
23347;DHT22;36852;45.466;11.066;2023-03-20T00:22:15;12.80;99.90
23347;DHT22;36852;45.466;11.066;2023-03-20T00:24:43;12.80;99.90
23347;DHT22;36852;45.466;11.066;2023-03-20T00:27:15;12.80;99.90
23347;DHT22;36852;45.466;11.066;2023-03-20T00:29:44;12.80;99.90
23347;DHT22;36852;45.466;11.066;2023-03-20T00:32:12;12.80;99.90
23347;DHT22;36852;45.466;11.066;2023-03-20T00:34:40;12.80;99.90
23347;DHT22;36852;45.466;11.066;2023-03-20T00:37:09;12.80;99.90
23347;DHT22;36852;45.466;11.066;2023-03-20T00:39:41;12.80;99.90
23347;DHT22;36852;45.466;11.066;2023-03-20T00:44:53;12.80;99.90
23347;DHT22;36852;45.466;11.066;2023-03-20T00:47:24;12.80;99.90
23347;DHT22;36852;45.466;11.066;2023-03-20T00:49:53;12.80;99.90
23347;DHT22;36852;45.466;11.066;2023-03-20T00:52:22;12.80;99.90
23347;DHT22;36852;45.466;11.066;2023-03-20T00:54:51;12.80;99.90
23347;DHT22;36852;45.466;11.066;2023-03-20T00:57:23;12.80;99.90
23347;DHT22;36852;45.466;11.066;2023-03-20T01:00:07;12.80;99.90
23347;DHT22;36852;45.466;11.066;2023-03-20T01:02:35;12.80;99.90
23347;DHT22;36852;45.466;11.066;2023-03-20T01:05:04;12.70;99.90
23347;DHT22;36852;45.466;11.066;2023-03-20T01:07:32;12.70;99.90
23347;DHT22;36852;45.466;11.066;2023-03-20T01:10:02;12.70;99.90
23347;DHT22;36852;45.466;11.066;2023-03-20T01:12:31;12.70;99.90
23347;DHT22;36852;45.466;11.066;2023-03-20T01:14:59;12.70;99.90
23347;DHT22;36852;45.466;11.066;2023-03-20T01:17:28;12.70;99.90
23347;DHT22;36852;45.466;11.066;2023-03-20T01:19:56;12.70;99.90
23347;DHT22;36852;45.466;11.066;2023-03-20T01:22:24;12.70;99.90
23347;DHT22;36852;45.466;11.066;2023-03-20T01:24:55;12.70;99.90
23347;DHT22;36852;45.466;11.066;2023-03-20T01:27:23;12.80;99.90
23347;DHT22;36852;45.466;11.066;2023-03-20T01:29:51;12.80;99.90
23347;DHT22;36852;45.466;11.066;2023-03-20T01:32:19;12.80;99.90
23347;DHT22;36852;45.466;11.066;2023-03-20T01:34:48;12.70;99.90
23347;DHT22;36852;45.466;11.066;2023-03-20T01:37:26;12.70;99.90
23347;DHT22;36852;45.466;11.066;2023-03-20T01:39:51;12.80;99.90
23347;DHT22;36852;45.466;11.066;2023-03-20T01:42:19;12.70;99.90
23347;DHT22;36852;45.466;11.066;2023-03-20T01:44:50;12.70;99.90
23347;DHT22;36852;45.466;11.066;2023-03-20T01:47:20;12.70;99.90
23347;DHT22;36852;45.466;11.066;2023-03-20T01:50:17;12.70;99.90
23347;DHT22;36852;45.466;11.066;2023-03-20T01:52:44;12.70;99.90
23347;DHT22;36852;45.466;11.066;2023-03-20T01:55:12;12.70;99.90
23347;DHT22;36852;45.466;11.066;2023-03-20T01:57:43;12.70;99.90
23347;DHT22;36852;45.466;11.066;2023-03-20T02:00:13;12.70;99.90
23347;DHT22;36852;45.466;11.066;2023-03-20T02:02:44;12.70;99.90
23347;DHT22;36852;45.466;11.066;2023-03-20T02:05:17;12.60;99.90
23347;DHT22;36852;45.466;11.066;2023-03-20T02:10:34;12.60;99.90
23347;DHT22;36852;45.466;11.066;2023-03-20T02:13:08;12.50;99.90
23347;DHT22;36852;45.466;11.066;2023-03-20T02:18:44;12.50;99.90
23347;DHT22;36852;45.466;11.066;2023-03-20T02:21:45;12.40;99.90
23347;DHT22;36852;45.466;11.066;2023-03-20T02:24:41;12.40;99.90
23347;DHT22;36852;45.466;11.066;2023-03-20T02:38:35;12.50;99.90
23347;DHT22;36852;45.466;11.066;2023-03-20T02:43:49;12.50;99.90
23347;DHT22;36852;45.466;11.066;2023-03-20T03:00:26;12.50;99.90
23347;DHT22;36852;45.466;11.066;2023-03-20T03:03:00;12.50;99.90
23347;DHT22;36852;45.466;11.066;2023-03-20T03:05:33;12.50;99.90
23347;DHT22;36852;45.466;11.066;2023-03-20T03:08:07;12.50;99.90
23347;DHT22;36852;45.466;11.066;2023-03-20T03:10:48;12.50;99.90
23347;DHT22;36852;45.466;11.066;2023-03-20T03:13:12;12.60;99.90
23347;DHT22;36852;45.466;11.066;2023-03-20T03:15:43;12.50;99.90
23347;DHT22;36852;45.466;11.066;2023-03-20T03:18:15;12.50;99.90
23347;DHT22;36852;45.466;11.066;2023-03-20T03:20:44;12.60;99.90
23347;DHT22;36852;45.466;11.066;2023-03-20T03:23:22;12.50;99.90
23347;DHT22;36852;45.466;11.066;2023-03-20T03:25:48;12.60;99.90
23347;DHT22;36852;45.466;11.066;2023-03-20T03:28:32;12.60;99.90
23347;DHT22;36852;45.466;11.066;2023-03-20T03:31:07;12.60;99.90
23347;DHT22;36852;45.466;11.066;2023-03-20T03:33:40;12.60;99.90
23347;DHT22;36852;45.466;11.066;2023-03-20T03:41:48;12.60;99.90
23347;DHT22;36852;45.466;11.066;2023-03-20T03:49:49;12.60;99.90
23347;DHT22;36852;45.466;11.066;2023-03-20T03:52:17;12.70;99.90
23347;DHT22;36852;45.466;11.066;2023-03-20T03:57:51;12.60;99.90
23347;DHT22;36852;45.466;11.066;2023-03-20T04:00:22;12.60;99.90
23347;DHT22;36852;45.466;11.066;2023-03-20T04:02:53;12.60;99.90
23347;DHT22;36852;45.466;11.066;2023-03-20T04:05:23;12.60;99.90
23347;DHT22;36852;45.466;11.066;2023-03-20T04:07:53;12.70;99.90
23347;DHT22;36852;45.466;11.066;2023-03-20T04:10:22;12.60;99.90
23347;DHT22;36852;45.466;11.066;2023-03-20T04:12:49;12.70;99.90
23347;DHT22;36852;45.466;11.066;2023-03-20T04:15:18;12.70;99.90
23347;DHT22;36852;45.466;11.066;2023-03-20T04:17:48;12.70;99.90
23347;DHT22;36852;45.466;11.066;2023-03-20T04:20:17;12.70;99.90
23347;DHT22;36852;45.466;11.066;2023-03-20T04:22:46;12.70;99.90
23347;DHT22;36852;45.466;11.066;2023-03-20T04:25:19;12.70;99.90
23347;DHT22;36852;45.466;11.066;2023-03-20T04:27:49;12.70;99.90
23347;DHT22;36852;45.466;11.066;2023-03-20T04:30:28;12.70;99.90
23347;DHT22;36852;45.466;11.066;2023-03-20T04:33:15;12.70;99.90
23347;DHT22;36852;45.466;11.066;2023-03-20T04:36:00;12.70;99.90
23347;DHT22;36852;45.466;11.066;2023-03-20T04:38:28;12.60;99.90
23347;DHT22;36852;45.466;11.066;2023-03-20T04:40:56;12.60;99.90
23347;DHT22;36852;45.466;11.066;2023-03-20T04:43:23;12.70;99.90
23347;DHT22;36852;45.466;11.066;2023-03-20T04:45:51;12.60;99.90
23347;DHT22;36852;45.466;11.066;2023-03-20T04:48:23;12.60;99.90
23347;DHT22;36852;45.466;11.066;2023-03-20T04:50:51;12.60;99.90
23347;DHT22;36852;45.466;11.066;2023-03-20T04:53:20;12.60;99.90
23347;DHT22;36852;45.466;11.066;2023-03-20T04:55:50;12.60;99.90
23347;DHT22;36852;45.466;11.066;2023-03-20T04:58:18;12.60;99.90
23347;DHT22;36852;45.466;11.066;2023-03-20T05:00:46;12.60;99.90
23347;DHT22;36852;45.466;11.066;2023-03-20T05:03:14;12.50;99.90
23347;DHT22;36852;45.466;11.066;2023-03-20T05:05:44;12.50;99.90
23347;DHT22;36852;45.466;11.066;2023-03-20T05:08:21;12.40;99.90
23347;DHT22;36852;45.466;11.066;2023-03-20T05:10:51;12.40;99.90
23347;DHT22;36852;45.466;11.066;2023-03-20T05:13:33;12.40;99.90
23347;DHT22;36852;45.466;11.066;2023-03-20T05:16:19;12.40;99.90
23347;DHT22;36852;45.466;11.066;2023-03-20T05:19:06;12.30;99.90
23347;DHT22;36852;45.466;11.066;2023-03-20T05:21:48;12.20;99.90
23347;DHT22;36852;45.466;11.066;2023-03-20T05:24:33;12.20;99.90
23347;DHT22;36852;45.466;11.066;2023-03-20T05:27:08;12.20;99.90
23347;DHT22;36852;45.466;11.066;2023-03-20T05:29:50;12.10;99.90
23347;DHT22;36852;45.466;11.066;2023-03-20T05:32:29;12.10;99.90
23347;DHT22;36852;45.466;11.066;2023-03-20T05:35:11;12.10;99.90
23347;DHT22;36852;45.466;11.066;2023-03-20T05:37:46;12.10;99.90
23347;DHT22;36852;45.466;11.066;2023-03-20T05:40:22;12.10;99.90
23347;DHT22;36852;45.466;11.066;2023-03-20T05:42:57;12.00;99.90
23347;DHT22;36852;45.466;11.066;2023-03-20T05:45:41;12.00;99.90
23347;DHT22;36852;45.466;11.066;2023-03-20T05:48:12;12.00;99.90
23347;DHT22;36852;45.466;11.066;2023-03-20T05:50:41;12.00;99.90
23347;DHT22;36852;45.466;11.066;2023-03-20T05:53:12;12.00;99.90
23347;DHT22;36852;45.466;11.066;2023-03-20T05:55:42;12.00;99.90
23347;DHT22;36852;45.466;11.066;2023-03-20T05:58:15;12.00;99.90
23347;DHT22;36852;45.466;11.066;2023-03-20T06:01:02;12.00;99.90
23347;DHT22;36852;45.466;11.066;2023-03-20T06:03:44;11.90;99.90
23347;DHT22;36852;45.466;11.066;2023-03-20T06:06:15;11.90;99.90
23347;DHT22;36852;45.466;11.066;2023-03-20T06:08:45;11.90;99.90
23347;DHT22;36852;45.466;11.066;2023-03-20T06:11:14;11.90;99.90
23347;DHT22;36852;45.466;11.066;2023-03-20T06:13:42;11.90;99.90
23347;DHT22;36852;45.466;11.066;2023-03-20T06:16:10;11.90;99.90
23347;DHT22;36852;45.466;11.066;2023-03-20T06:18:39;11.90;99.90
23347;DHT22;36852;45.466;11.066;2023-03-20T06:21:07;11.90;99.90
23347;DHT22;36852;45.466;11.066;2023-03-20T06:23:36;11.90;99.90
23347;DHT22;36852;45.466;11.066;2023-03-20T06:26:04;11.90;99.90
23347;DHT22;36852;45.466;11.066;2023-03-20T06:28:34;11.90;99.90
23347;DHT22;36852;45.466;11.066;2023-03-20T06:31:03;12.00;99.90
23347;DHT22;36852;45.466;11.066;2023-03-20T06:33:33;12.00;99.90
23347;DHT22;36852;45.466;11.066;2023-03-20T06:36:01;12.00;99.90
23347;DHT22;36852;45.466;11.066;2023-03-20T06:38:30;12.10;99.90
23347;DHT22;36852;45.466;11.066;2023-03-20T06:41:00;12.10;99.90
23347;DHT22;36852;45.466;11.066;2023-03-20T06:43:27;12.10;99.90
23347;DHT22;36852;45.466;11.066;2023-03-20T06:45:56;12.10;99.90
23347;DHT22;36852;45.466;11.066;2023-03-20T06:48:28;12.20;99.90
23347;DHT22;36852;45.466;11.066;2023-03-20T06:50:56;12.20;99.90
23347;DHT22;36852;45.466;11.066;2023-03-20T06:53:25;12.20;99.90
23347;DHT22;36852;45.466;11.066;2023-03-20T06:55:55;12.20;99.90
23347;DHT22;36852;45.466;11.066;2023-03-20T06:58:23;12.30;99.90
23347;DHT22;36852;45.466;11.066;2023-03-20T07:00:54;12.30;99.90
23347;DHT22;36852;45.466;11.066;2023-03-20T07:03:32;12.30;99.90
23347;DHT22;36852;45.466;11.066;2023-03-20T07:06:00;12.40;99.90
23347;DHT22;36852;45.466;11.066;2023-03-20T07:08:28;12.40;99.90
23347;DHT22;36852;45.466;11.066;2023-03-20T07:10:57;12.50;99.90
23347;DHT22;36852;45.466;11.066;2023-03-20T07:13:29;12.60;99.90
23347;DHT22;36852;45.466;11.066;2023-03-20T07:16:01;12.60;99.90
23347;DHT22;36852;45.466;11.066;2023-03-20T07:18:33;12.70;99.90
23347;DHT22;36852;45.466;11.066;2023-03-20T07:21:03;12.80;99.90
23347;DHT22;36852;45.466;11.066;2023-03-20T07:23:32;12.80;99.90
23347;DHT22;36852;45.466;11.066;2023-03-20T07:26:01;12.90;99.90
23347;DHT22;36852;45.466;11.066;2023-03-20T07:28:29;13.10;99.90
23347;DHT22;36852;45.466;11.066;2023-03-20T07:31:06;13.20;99.90
23347;DHT22;36852;45.466;11.066;2023-03-20T07:33:34;13.20;99.90
23347;DHT22;36852;45.466;11.066;2023-03-20T07:36:04;13.30;99.90
23347;DHT22;36852;45.466;11.066;2023-03-20T07:38:33;13.40;99.90
23347;DHT22;36852;45.466;11.066;2023-03-20T07:41:02;13.50;99.90
23347;DHT22;36852;45.466;11.066;2023-03-20T07:43:31;13.60;99.90
23347;DHT22;36852;45.466;11.066;2023-03-20T07:46:38;13.70;99.90
23347;DHT22;36852;45.466;11.066;2023-03-20T07:49:07;13.70;99.90
23347;DHT22;36852;45.466;11.066;2023-03-20T07:51:35;13.90;99.90
23347;DHT22;36852;45.466;11.066;2023-03-20T07:54:03;13.90;99.90
23347;DHT22;36852;45.466;11.066;2023-03-20T07:56:30;13.90;99.90
23347;DHT22;36852;45.466;11.066;2023-03-20T07:58:58;14.00;99.90
23347;DHT22;36852;45.466;11.066;2023-03-20T08:01:26;14.10;99.90
23347;DHT22;36852;45.466;11.066;2023-03-20T08:03:55;14.20;99.90
23347;DHT22;36852;45.466;11.066;2023-03-20T08:06:23;14.20;99.90
23347;DHT22;36852;45.466;11.066;2023-03-20T08:08:55;14.30;99.90
23347;DHT22;36852;45.466;11.066;2023-03-20T08:11:22;14.30;99.90
23347;DHT22;36852;45.466;11.066;2023-03-20T08:13:52;14.40;99.90
23347;DHT22;36852;45.466;11.066;2023-03-20T08:16:19;14.50;99.90
23347;DHT22;36852;45.466;11.066;2023-03-20T08:18:47;14.60;99.90
23347;DHT22;36852;45.466;11.066;2023-03-20T08:21:17;14.60;99.90
23347;DHT22;36852;45.466;11.066;2023-03-20T08:23:44;14.60;99.90
23347;DHT22;36852;45.466;11.066;2023-03-20T08:26:12;14.70;99.90
23347;DHT22;36852;45.466;11.066;2023-03-20T08:28:44;14.70;99.90
23347;DHT22;36852;45.466;11.066;2023-03-20T08:31:14;14.80;99.90
23347;DHT22;36852;45.466;11.066;2023-03-20T08:33:44;14.80;99.90
23347;DHT22;36852;45.466;11.066;2023-03-20T08:36:13;14.80;99.90
23347;DHT22;36852;45.466;11.066;2023-03-20T08:38:42;14.80;99.90
23347;DHT22;36852;45.466;11.066;2023-03-20T08:41:10;14.80;99.90
23347;DHT22;36852;45.466;11.066;2023-03-20T08:43:38;14.90;99.90
23347;DHT22;36852;45.466;11.066;2023-03-20T08:46:06;14.90;99.90
23347;DHT22;36852;45.466;11.066;2023-03-20T08:48:34;14.90;99.90
23347;DHT22;36852;45.466;11.066;2023-03-20T08:51:03;15.00;99.90
23347;DHT22;36852;45.466;11.066;2023-03-20T08:53:34;15.00;99.90
23347;DHT22;36852;45.466;11.066;2023-03-20T08:56:02;15.10;99.90
23347;DHT22;36852;45.466;11.066;2023-03-20T08:58:30;15.10;99.90
23347;DHT22;36852;45.466;11.066;2023-03-20T09:01:04;15.10;99.90
23347;DHT22;36852;45.466;11.066;2023-03-20T09:03:32;15.10;99.90
23347;DHT22;36852;45.466;11.066;2023-03-20T09:06:00;15.10;99.90
23347;DHT22;36852;45.466;11.066;2023-03-20T09:08:28;15.20;99.90
23347;DHT22;36852;45.466;11.066;2023-03-20T09:11:16;15.20;99.90
23347;DHT22;36852;45.466;11.066;2023-03-20T09:13:43;15.30;99.90
23347;DHT22;36852;45.466;11.066;2023-03-20T09:16:11;15.30;99.90
23347;DHT22;36852;45.466;11.066;2023-03-20T09:18:41;15.30;99.90
23347;DHT22;36852;45.466;11.066;2023-03-20T09:21:08;15.40;99.90
23347;DHT22;36852;45.466;11.066;2023-03-20T09:23:36;15.40;99.90
23347;DHT22;36852;45.466;11.066;2023-03-20T09:26:04;15.50;99.90
23347;DHT22;36852;45.466;11.066;2023-03-20T09:28:33;15.50;99.90
23347;DHT22;36852;45.466;11.066;2023-03-20T09:31:02;15.60;99.90
23347;DHT22;36852;45.466;11.066;2023-03-20T09:33:30;15.70;99.90
23347;DHT22;36852;45.466;11.066;2023-03-20T09:35:58;15.70;99.90
23347;DHT22;36852;45.466;11.066;2023-03-20T09:38:26;15.70;99.90
23347;DHT22;36852;45.466;11.066;2023-03-20T09:41:00;15.70;99.90
23347;DHT22;36852;45.466;11.066;2023-03-20T09:51:54;15.80;99.90
23347;DHT22;36852;45.466;11.066;2023-03-20T09:56:56;15.90;99.90
23347;DHT22;36852;45.466;11.066;2023-03-20T09:59:25;16.00;99.90
23347;DHT22;36852;45.466;11.066;2023-03-20T10:02:00;16.10;99.90
23347;DHT22;36852;45.466;11.066;2023-03-20T10:04:28;16.20;99.90
23347;DHT22;36852;45.466;11.066;2023-03-20T10:06:56;16.30;99.90
23347;DHT22;36852;45.466;11.066;2023-03-20T10:09:27;16.40;99.90
23347;DHT22;36852;45.466;11.066;2023-03-20T10:20:35;16.70;99.90
23347;DHT22;36852;45.466;11.066;2023-03-20T10:25:53;16.80;99.90
23347;DHT22;36852;45.466;11.066;2023-03-20T10:28:28;16.90;99.90
23347;DHT22;36852;45.466;11.066;2023-03-20T10:41:55;17.10;99.90
23347;DHT22;36852;45.466;11.066;2023-03-20T10:44:38;17.20;99.90
23347;DHT22;36852;45.466;11.066;2023-03-20T10:47:10;17.30;99.90
23347;DHT22;36852;45.466;11.066;2023-03-20T10:49:42;17.30;99.90
23347;DHT22;36852;45.466;11.066;2023-03-20T10:52:17;17.40;99.90
23347;DHT22;36852;45.466;11.066;2023-03-20T10:55:03;17.60;99.90
23347;DHT22;36852;45.466;11.066;2023-03-20T10:57:32;17.60;99.90
23347;DHT22;36852;45.466;11.066;2023-03-20T11:00:00;17.60;99.90
23347;DHT22;36852;45.466;11.066;2023-03-20T11:02:32;17.60;99.90
23347;DHT22;36852;45.466;11.066;2023-03-20T11:05:07;17.60;99.90
23347;DHT22;36852;45.466;11.066;2023-03-20T11:07:33;17.60;99.90
23347;DHT22;36852;45.466;11.066;2023-03-20T11:10:11;17.60;99.90
23347;DHT22;36852;45.466;11.066;2023-03-20T11:12:45;17.70;99.90
23347;DHT22;36852;45.466;11.066;2023-03-20T11:15:20;17.80;99.90
23347;DHT22;36852;45.466;11.066;2023-03-20T11:17:53;17.90;99.90
23347;DHT22;36852;45.466;11.066;2023-03-20T11:20:21;18.00;99.90
23347;DHT22;36852;45.466;11.066;2023-03-20T11:22:50;18.10;99.90
23347;DHT22;36852;45.466;11.066;2023-03-20T11:25:38;18.20;99.90
23347;DHT22;36852;45.466;11.066;2023-03-20T11:31:13;18.30;99.90
23347;DHT22;36852;45.466;11.066;2023-03-20T11:33:45;18.50;99.90
23347;DHT22;36852;45.466;11.066;2023-03-20T11:36:26;18.50;99.90
23347;DHT22;36852;45.466;11.066;2023-03-20T11:39:12;18.50;99.70
23347;DHT22;36852;45.466;11.066;2023-03-20T11:47:05;18.70;99.40
23347;DHT22;36852;45.466;11.066;2023-03-20T11:49:31;18.80;99.90
23347;DHT22;36852;45.466;11.066;2023-03-20T11:52:08;18.90;99.90
23347;DHT22;36852;45.466;11.066;2023-03-20T11:54:32;18.90;99.20
23347;DHT22;36852;45.466;11.066;2023-03-20T11:57:01;19.00;99.20
23347;DHT22;36852;45.466;11.066;2023-03-20T11:59:31;19.00;98.90
23347;DHT22;36852;45.466;11.066;2023-03-20T12:02:11;19.10;98.60
23347;DHT22;36852;45.466;11.066;2023-03-20T12:04:34;19.00;97.20
23347;DHT22;36852;45.466;11.066;2023-03-20T12:07:22;19.00;97.30
23347;DHT22;36852;45.466;11.066;2023-03-20T12:09:57;19.00;96.80
23347;DHT22;36852;45.466;11.066;2023-03-20T12:12:53;18.90;96.20
23347;DHT22;36852;45.466;11.066;2023-03-20T12:15:31;18.90;96.50
23347;DHT22;36852;45.466;11.066;2023-03-20T12:21:15;18.70;96.10
23347;DHT22;36852;45.466;11.066;2023-03-20T12:24:32;18.80;96.90
23347;DHT22;36852;45.466;11.066;2023-03-20T12:28:59;18.90;95.70
23347;DHT22;36852;45.466;11.066;2023-03-20T12:31:48;19.10;95.90
23347;DHT22;36852;45.466;11.066;2023-03-20T12:34:34;19.20;95.90
23347;DHT22;36852;45.466;11.066;2023-03-20T12:37:04;19.40;95.90
23347;DHT22;36852;45.466;11.066;2023-03-20T12:39:44;19.60;94.20
23347;DHT22;36852;45.466;11.066;2023-03-20T12:45:25;19.50;92.70
23347;DHT22;36852;45.466;11.066;2023-03-20T12:50:59;19.50;92.40
23347;DHT22;36852;45.466;11.066;2023-03-20T12:56:33;19.70;92.90
23347;DHT22;36852;45.466;11.066;2023-03-20T12:59:10;20.00;92.90
23347;DHT22;36852;45.466;11.066;2023-03-20T13:01:52;20.30;92.40
23347;DHT22;36852;45.466;11.066;2023-03-20T13:04:40;20.50;90.40
23347;DHT22;36852;45.466;11.066;2023-03-20T13:07:00;20.50;90.00
23347;DHT22;36852;45.466;11.066;2023-03-20T13:14:56;21.10;90.10
23347;DHT22;36852;45.466;11.066;2023-03-20T13:20:14;21.30;82.20
23347;DHT22;36852;45.466;11.066;2023-03-20T13:28:04;21.30;83.30
23347;DHT22;36852;45.466;11.066;2023-03-20T13:41:59;21.60;79.40
23347;DHT22;36852;45.466;11.066;2023-03-20T13:44:29;21.70;78.30
23347;DHT22;36852;45.466;11.066;2023-03-20T13:47:01;21.80;78.80
23347;DHT22;36852;45.466;11.066;2023-03-20T14:00:41;22.50;75.60
23347;DHT22;36852;45.466;11.066;2023-03-20T14:03:33;22.60;77.20
23347;DHT22;36852;45.466;11.066;2023-03-20T14:06:00;22.70;75.80
23347;DHT22;36852;45.466;11.066;2023-03-20T14:08:34;22.60;74.80
23347;DHT22;36852;45.466;11.066;2023-03-20T14:13:50;22.50;75.20
23347;DHT22;36852;45.466;11.066;2023-03-20T14:16:20;22.40;75.80
23347;DHT22;36852;45.466;11.066;2023-03-20T14:18:49;22.20;76.30
23347;DHT22;36852;45.466;11.066;2023-03-20T14:21:22;22.10;77.10
23347;DHT22;36852;45.466;11.066;2023-03-20T14:24:02;22.20;76.80
23347;DHT22;36852;45.466;11.066;2023-03-20T14:26:36;22.20;77.00
23347;DHT22;36852;45.466;11.066;2023-03-20T14:31:47;22.50;75.40
23347;DHT22;36852;45.466;11.066;2023-03-20T14:34:21;22.50;73.40
23347;DHT22;36852;45.466;11.066;2023-03-20T14:42:25;22.50;73.50
23347;DHT22;36852;45.466;11.066;2023-03-20T14:53:57;23.60;72.20
23347;DHT22;36852;45.466;11.066;2023-03-20T14:56:32;24.10;70.90
23347;DHT22;36852;45.466;11.066;2023-03-20T14:59:05;24.60;69.10
23347;DHT22;36852;45.466;11.066;2023-03-20T15:01:41;25.00;66.80
23347;DHT22;36852;45.466;11.066;2023-03-20T15:04:22;25.50;64.70
23347;DHT22;36852;45.466;11.066;2023-03-20T15:07:15;25.80;62.60
23347;DHT22;36852;45.466;11.066;2023-03-20T15:09:45;26.20;61.40
23347;DHT22;36852;45.466;11.066;2023-03-20T15:12:18;26.60;59.50
23347;DHT22;36852;45.466;11.066;2023-03-20T15:14:51;26.40;58.00
23347;DHT22;36852;45.466;11.066;2023-03-20T15:17:23;26.60;57.50
23347;DHT22;36852;45.466;11.066;2023-03-20T15:20:12;26.90;56.50
23347;DHT22;36852;45.466;11.066;2023-03-20T15:22:52;27.10;55.10
23347;DHT22;36852;45.466;11.066;2023-03-20T15:25:42;27.30;54.50
23347;DHT22;36852;45.466;11.066;2023-03-20T15:28:19;27.30;54.40
23347;DHT22;36852;45.466;11.066;2023-03-20T15:30:47;27.30;54.70
23347;DHT22;36852;45.466;11.066;2023-03-20T15:33:28;27.30;55.10
23347;DHT22;36852;45.466;11.066;2023-03-20T15:35:57;27.40;54.40
23347;DHT22;36852;45.466;11.066;2023-03-20T15:38:31;27.40;54.30
23347;DHT22;36852;45.466;11.066;2023-03-20T15:43:40;27.30;54.10
23347;DHT22;36852;45.466;11.066;2023-03-20T15:46:08;27.30;54.00
23347;DHT22;36852;45.466;11.066;2023-03-20T15:48:38;27.40;53.10
23347;DHT22;36852;45.466;11.066;2023-03-20T15:51:08;27.50;52.60
23347;DHT22;36852;45.466;11.066;2023-03-20T15:53:41;27.60;52.70
23347;DHT22;36852;45.466;11.066;2023-03-20T15:56:13;27.70;52.40
23347;DHT22;36852;45.466;11.066;2023-03-20T15:58:44;27.70;52.40
23347;DHT22;36852;45.466;11.066;2023-03-20T16:01:18;27.90;52.10
23347;DHT22;36852;45.466;11.066;2023-03-20T16:03:47;27.90;52.00
23347;DHT22;36852;45.466;11.066;2023-03-20T16:06:20;27.80;52.10
23347;DHT22;36852;45.466;11.066;2023-03-20T16:09:01;27.50;51.90
23347;DHT22;36852;45.466;11.066;2023-03-20T16:11:35;26.90;53.80
23347;DHT22;36852;45.466;11.066;2023-03-20T16:14:05;26.30;54.90
23347;DHT22;36852;45.466;11.066;2023-03-20T16:16:33;25.70;56.30
23347;DHT22;36852;45.466;11.066;2023-03-20T16:19:05;25.40;58.00
23347;DHT22;36852;45.466;11.066;2023-03-20T16:21:37;25.30;59.10
23347;DHT22;36852;45.466;11.066;2023-03-20T16:24:08;25.20;59.40
23347;DHT22;36852;45.466;11.066;2023-03-20T16:26:40;25.10;60.00
23347;DHT22;36852;45.466;11.066;2023-03-20T16:29:12;24.90;60.10
23347;DHT22;36852;45.466;11.066;2023-03-20T16:31:51;24.60;61.50
23347;DHT22;36852;45.466;11.066;2023-03-20T16:34:20;24.20;63.00
23347;DHT22;36852;45.466;11.066;2023-03-20T16:36:55;23.90;64.30
23347;DHT22;36852;45.466;11.066;2023-03-20T16:39:26;23.70;65.30
23347;DHT22;36852;45.466;11.066;2023-03-20T16:44:44;23.40;67.30
23347;DHT22;36852;45.466;11.066;2023-03-20T16:47:20;23.20;68.70
23347;DHT22;36852;45.466;11.066;2023-03-20T16:52:26;22.60;69.60
23347;DHT22;36852;45.466;11.066;2023-03-20T16:54:56;22.30;71.20
23347;DHT22;36852;45.466;11.066;2023-03-20T16:57:26;22.00;72.70
23347;DHT22;36852;45.466;11.066;2023-03-20T16:59:58;21.70;74.00
23347;DHT22;36852;45.466;11.066;2023-03-20T17:02:29;21.40;75.10
23347;DHT22;36852;45.466;11.066;2023-03-20T17:05:04;21.20;76.50
23347;DHT22;36852;45.466;11.066;2023-03-20T17:07:32;20.90;77.70
23347;DHT22;36852;45.466;11.066;2023-03-20T17:10:19;20.70;80.20
23347;DHT22;36852;45.466;11.066;2023-03-20T17:12:48;20.50;80.90
23347;DHT22;36852;45.466;11.066;2023-03-20T17:15:22;20.30;82.00
23347;DHT22;36852;45.466;11.066;2023-03-20T17:17:49;20.10;83.50
23347;DHT22;36852;45.466;11.066;2023-03-20T17:20:24;19.90;84.80
23347;DHT22;36852;45.466;11.066;2023-03-20T17:22:48;19.70;86.50
23347;DHT22;36852;45.466;11.066;2023-03-20T17:25:17;19.60;88.30
23347;DHT22;36852;45.466;11.066;2023-03-20T17:27:45;19.50;89.90
23347;DHT22;36852;45.466;11.066;2023-03-20T17:30:20;19.30;90.60
23347;DHT22;36852;45.466;11.066;2023-03-20T17:32:49;19.10;91.30
23347;DHT22;36852;45.466;11.066;2023-03-20T17:35:17;19.00;92.00
23347;DHT22;36852;45.466;11.066;2023-03-20T17:37:45;18.90;92.70
23347;DHT22;36852;45.466;11.066;2023-03-20T17:40:18;18.80;93.50
23347;DHT22;36852;45.466;11.066;2023-03-20T17:42:47;18.70;94.50
23347;DHT22;36852;45.466;11.066;2023-03-20T17:45:16;18.70;95.10
23347;DHT22;36852;45.466;11.066;2023-03-20T17:47:45;18.60;95.80
23347;DHT22;36852;45.466;11.066;2023-03-20T17:50:22;18.50;96.30
23347;DHT22;36852;45.466;11.066;2023-03-20T17:52:54;18.30;97.10
23347;DHT22;36852;45.466;11.066;2023-03-20T17:55:22;18.30;98.00
23347;DHT22;36852;45.466;11.066;2023-03-20T17:57:49;18.20;98.90
23347;DHT22;36852;45.466;11.066;2023-03-20T18:00:22;18.10;99.90
23347;DHT22;36852;45.466;11.066;2023-03-20T18:02:50;18.10;99.90
23347;DHT22;36852;45.466;11.066;2023-03-20T18:05:18;18.00;99.90
23347;DHT22;36852;45.466;11.066;2023-03-20T18:07:46;17.90;99.90
23347;DHT22;36852;45.466;11.066;2023-03-20T18:10:18;17.90;99.90
23347;DHT22;36852;45.466;11.066;2023-03-20T18:12:45;17.80;99.90
23347;DHT22;36852;45.466;11.066;2023-03-20T18:15:13;17.80;99.90
23347;DHT22;36852;45.466;11.066;2023-03-20T18:17:41;17.70;99.90
23347;DHT22;36852;45.466;11.066;2023-03-20T18:20:15;17.60;99.90
23347;DHT22;36852;45.466;11.066;2023-03-20T18:22:40;17.60;99.90
23347;DHT22;36852;45.466;11.066;2023-03-20T18:25:08;17.50;99.90
23347;DHT22;36852;45.466;11.066;2023-03-20T18:27:36;17.50;99.90
23347;DHT22;36852;45.466;11.066;2023-03-20T18:30:14;17.40;99.90
23347;DHT22;36852;45.466;11.066;2023-03-20T18:32:40;17.40;99.90
23347;DHT22;36852;45.466;11.066;2023-03-20T18:35:08;17.30;99.90
23347;DHT22;36852;45.466;11.066;2023-03-20T18:37:37;17.30;99.90